Hawaiian Chieftain — WDC8751 — position and weather

sailwx.info

Track history (hours):
 
Tides and Currents Weather Stations Pressure Air Temp Water Temp Dewpoint Dewpoint Depression Visibility Wind Speed Wind Dir Waves Ship Positions

Hawaiian Chieftain (United States)

Operated briefly as "Spirt of Larinda". When she sailed from Sausalito, California, callsign was WAA7737.

Ship's website: http://www.historicalseaport.org/HawaiianChieftain.htm

Owner: GRAYS HARBOR HISTORICAL SEAPORT AUTHORITY, ABERDEEN, WA. More information available from US FCC via Universal Licensing System and Coast Guard Vessel Documentation Center.

Last reported at 2017-Feb-19 15:26 UTC. Time now 2017-Feb-19 18:41 UTC.
Position N 37°48' W 122°17'.

Length 31 m.

Type: Sailing vessel. MMSI: 367092520.

Date/timePositionNaut miles runAvg speedWind from/ knotsBaromVisibWave heightAir tempDewpointWater temp
2017-Feb-19 15:26N 37°48' W 122°17'0 0.0
2017-Feb-19 14:25N 37°48' W 122°17'0 0.0
2017-Feb-18 18:03N 37°48' W 122°17'0 0.0
2017-Feb-18 17:33N 37°48' W 122°17'0 0.0
2017-Feb-18 16:33N 37°48' W 122°17'0 0.0
2017-Feb-18 15:27N 37°48' W 122°17'0 0.0
2017-Feb-18 14:33N 37°48' W 122°17'0 0.0
2017-Feb-18 13:31N 37°48' W 122°17'0 0.0
2017-Feb-18 12:28N 37°48' W 122°17'0 0.0
2017-Feb-18 11:30N 37°48' W 122°17'0 0.0
2017-Feb-18 10:30N 37°48' W 122°17'0 0.0
2017-Feb-18 09:27N 37°48' W 122°17'0 0.0
2017-Feb-18 08:21N 37°48' W 122°17'0 0.0
2017-Feb-18 07:18N 37°48' W 122°17'0 0.0
2017-Feb-18 06:30N 37°48' W 122°17'0 0.0
2017-Feb-18 05:33N 37°48' W 122°17'0 0.0
2017-Feb-18 04:33N 37°48' W 122°17'0 0.0
2017-Feb-18 03:24N 37°48' W 122°17'0 0.0
2017-Feb-18 02:27N 37°48' W 122°17'0 0.0
2017-Feb-18 01:27N 37°48' W 122°17'0 0.0
2017-Feb-18 00:33N 37°48' W 122°17'0 0.0
2017-Feb-17 23:18N 37°48' W 122°17'0 0.0
2017-Feb-17 22:33N 37°48' W 122°17'0 0.0
2017-Feb-17 21:18N 37°48' W 122°17'0 0.0
2017-Feb-17 20:33N 37°48' W 122°17'0 0.0
2017-Feb-17 19:33N 37°48' W 122°17'0 0.0
2017-Feb-17 18:33N 37°48' W 122°17'0 0.0
2017-Feb-17 17:30N 37°48' W 122°17'0 0.0
2017-Feb-17 16:27N 37°48' W 122°17'0 0.0
2017-Feb-17 15:33N 37°48' W 122°17'0 0.0
2017-Feb-17 14:33N 37°48' W 122°17'0 0.0
2017-Feb-17 13:33N 37°48' W 122°17'0 0.0
2017-Feb-17 12:18N 37°48' W 122°17'0 0.0
2017-Feb-17 11:24N 37°48' W 122°17'0 0.0
2017-Feb-17 10:24N 37°48' W 122°17'0 0.0
2017-Feb-17 09:24N 37°48' W 122°17'0 0.0
2017-Feb-17 08:27N 37°48' W 122°17'0 0.0
2017-Feb-17 07:29N 37°48' W 122°17'0 0.0
2017-Feb-17 06:23N 37°48' W 122°17'0 0.0
2017-Feb-17 01:23N 37°48' W 122°17'0 0.0
2017-Feb-16 23:26N 37°48' W 122°17'0 0.0
2017-Feb-16 20:30N 37°48' W 122°17'0 0.0
2017-Feb-16 18:29N 37°48' W 122°17'2 1.9
2017-Feb-16 17:33N 37°48' W 122°19'4 3.9
2017-Feb-16 16:33N 37°48' W 122°24'4 4.4
2017-Feb-16 15:33N 37°49' W 122°29'72 7.0
2017-Feb-16 05:20N 36°39' W 122°09'6 7.6
2017-Feb-16 04:30N 36°32' W 122°09'7 7.2
2017-Feb-16 03:33N 36°25' W 122°09'8 7.8
2017-Feb-16 02:32N 36°17' W 122°09'7 7.2
2017-Feb-16 01:33N 36°11' W 122°06'8 8.0
2017-Feb-16 00:32N 36°05' W 121°59'7 7.3
2017-Feb-15 23:33N 36°01' W 121°52'131 5.5
2017-Feb-14 23:32N 34°21' W 120°08'  
Track history (hours):
 
Tides and Currents Weather Stations Pressure Air Temp Water Temp Dewpoint Dewpoint Depression Visibility Wind Speed Wind Dir Waves Ship Positions

Hawaiian Chieftain (United States)

Operated briefly as "Spirt of Larinda". When she sailed from Sausalito, California, callsign was WAA7737.

Ship's website: http://www.historicalseaport.org/HawaiianChieftain.htm

Owner: GRAYS HARBOR HISTORICAL SEAPORT AUTHORITY, ABERDEEN, WA. More information available from US FCC via Universal Licensing System and Coast Guard Vessel Documentation Center.

Last reported at 2017-Feb-19 15:26 UTC. Time now 2017-Feb-19 18:42 UTC.
Position N 37°48' W 122°17'.

Length 31 m.

Type: Sailing vessel. MMSI: 367092520.

Date/timePositionNaut miles runAvg speedWind from/ knotsBaromVisibWave heightAir tempDewpointWater temp
2017-Feb-19 15:26N 37°48' W 122°17'0 0.0
2017-Feb-19 14:25N 37°48' W 122°17'0 0.0
2017-Feb-18 18:03N 37°48' W 122°17'0 0.0
2017-Feb-18 17:33N 37°48' W 122°17'0 0.0
2017-Feb-18 16:33N 37°48' W 122°17'0 0.0
2017-Feb-18 15:27N 37°48' W 122°17'0 0.0
2017-Feb-18 14:33N 37°48' W 122°17'0 0.0
2017-Feb-18 13:31N 37°48' W 122°17'0 0.0
2017-Feb-18 12:28N 37°48' W 122°17'0 0.0
2017-Feb-18 11:30N 37°48' W 122°17'0 0.0
2017-Feb-18 10:30N 37°48' W 122°17'0 0.0
2017-Feb-18 09:27N 37°48' W 122°17'0 0.0
2017-Feb-18 08:21N 37°48' W 122°17'0 0.0
2017-Feb-18 07:18N 37°48' W 122°17'0 0.0
2017-Feb-18 06:30N 37°48' W 122°17'0 0.0
2017-Feb-18 05:33N 37°48' W 122°17'0 0.0
2017-Feb-18 04:33N 37°48' W 122°17'0 0.0
2017-Feb-18 03:24N 37°48' W 122°17'0 0.0
2017-Feb-18 02:27N 37°48' W 122°17'0 0.0
2017-Feb-18 01:27N 37°48' W 122°17'0 0.0
2017-Feb-18 00:33N 37°48' W 122°17'0 0.0
2017-Feb-17 23:18N 37°48' W 122°17'0 0.0
2017-Feb-17 22:33N 37°48' W 122°17'0 0.0
2017-Feb-17 21:18N 37°48' W 122°17'0 0.0
2017-Feb-17 20:33N 37°48' W 122°17'0 0.0
2017-Feb-17 19:33N 37°48' W 122°17'0 0.0
2017-Feb-17 18:33N 37°48' W 122°17'0 0.0
2017-Feb-17 17:30N 37°48' W 122°17'0 0.0
2017-Feb-17 16:27N 37°48' W 122°17'0 0.0
2017-Feb-17 15:33N 37°48' W 122°17'0 0.0
2017-Feb-17 14:33N 37°48' W 122°17'0 0.0
2017-Feb-17 13:33N 37°48' W 122°17'0 0.0
2017-Feb-17 12:18N 37°48' W 122°17'0 0.0
2017-Feb-17 11:24N 37°48' W 122°17'0 0.0
2017-Feb-17 10:24N 37°48' W 122°17'0 0.0
2017-Feb-17 09:24N 37°48' W 122°17'0 0.0
2017-Feb-17 08:27N 37°48' W 122°17'0 0.0
2017-Feb-17 07:29N 37°48' W 122°17'0 0.0
2017-Feb-17 06:23N 37°48' W 122°17'0 0.0
2017-Feb-17 01:23N 37°48' W 122°17'0 0.0
2017-Feb-16 23:26N 37°48' W 122°17'0 0.0
2017-Feb-16 20:30N 37°48' W 122°17'0 0.0
2017-Feb-16 18:29N 37°48' W 122°17'2 1.9
2017-Feb-16 17:33N 37°48' W 122°19'4 3.9
2017-Feb-16 16:33N 37°48' W 122°24'4 4.4
2017-Feb-16 15:33N 37°49' W 122°29'72 7.0
2017-Feb-16 05:20N 36°39' W 122°09'6 7.6
2017-Feb-16 04:30N 36°32' W 122°09'7 7.2
2017-Feb-16 03:33N 36°25' W 122°09'8 7.8
2017-Feb-16 02:32N 36°17' W 122°09'7 7.2
2017-Feb-16 01:33N 36°11' W 122°06'8 8.0
2017-Feb-16 00:32N 36°05' W 121°59'7 7.3
2017-Feb-15 23:33N 36°01' W 121°52'131 5.5
2017-Feb-14 23:32N 34°21' W 120°08'  

Dump ship's entire track history